Time;durP1;ratioP1;P1;durP2;ratioP2;P2;SDS_P1;SDS_P2;PMS_P1;PMS_P2;Temp;Humidity;BMP_temperature;BMP_pressure;BME280_temperature;BME280_humidity;BME280_pressure;Samples;Min_cycle;Max_cycle;Signal;HPM_P1;HPM_P2
2023/09/29 00:00:17;;;;;;;7.25;3.58;;;18.20;99.90;;;;;;5092117;28;20161;-51
2023/09/29 00:02:45;;;;;;;4.45;3.30;;;18.30;99.90;;;;;;5091736;28;20584;-50
2023/09/29 00:05:11;;;;;;;6.20;3.80;;;18.20;99.90;;;;;;5092287;28;20177;-50
2023/09/29 00:07:40;;;;;;;4.45;3.42;;;18.20;99.90;;;;;;5092015;28;20256;-50
2023/09/29 00:10:08;;;;;;;10.35;3.63;;;18.20;99.90;;;;;;5091546;28;20223;-50
2023/09/29 00:12:36;;;;;;;5.88;3.75;;;18.10;99.90;;;;;;5091769;28;20169;-50
2023/09/29 00:15:06;;;;;;;4.85;3.88;;;18.10;99.90;;;;;;5091573;28;20169;-50
2023/09/29 00:17:32;;;;;;;6.38;4.05;;;18.10;99.90;;;;;;5073416;28;20573;-50
2023/09/29 00:19:58;;;;;;;4.60;3.13;;;18.10;99.90;;;;;;5091617;28;20256;-50
2023/09/29 00:22:24;;;;;;;7.05;4.07;;;;;;;;;;5091628;28;20173;-49
2023/09/29 00:24:50;;;;;;;6.15;3.30;;;18.10;99.90;;;;;;5091395;28;20504;-50
2023/09/29 00:27:15;;;;;;;5.85;4.03;;;18.00;99.90;;;;;;5091685;28;20178;-50
2023/09/29 00:29:42;;;;;;;6.60;3.72;;;18.10;99.90;;;;;;5091737;28;20656;-51
2023/09/29 00:32:07;;;;;;;4.32;3.30;;;18.10;99.90;;;;;;5092600;28;20291;-49
2023/09/29 00:34:33;;;;;;;5.05;2.95;;;18.10;99.90;;;;;;5095472;28;20244;-49
2023/09/29 00:36:59;;;;;;;7.00;3.78;;;18.10;99.90;;;;;;5095703;28;20169;-49
2023/09/29 00:39:24;;;;;;;4.93;3.40;;;18.00;99.90;;;;;;5095363;28;20569;-49
2023/09/29 00:41:50;;;;;;;7.07;4.07;;;18.00;99.90;;;;;;5095324;28;20165;-49
2023/09/29 00:44:16;;;;;;;10.88;4.38;;;18.10;99.90;;;;;;5095341;28;20173;-49
2023/09/29 00:46:43;;;;;;;6.38;4.43;;;;;;;;;;5095574;28;20209;-49
2023/09/29 00:49:09;;;;;;;6.50;3.83;;;;;;;;;;5095800;28;20638;-49
2023/09/29 00:51:35;;;;;;;5.97;3.22;;;18.10;99.90;;;;;;5095124;28;20161;-49
2023/09/29 00:54:08;;;;;;;6.53;3.25;;;18.10;99.90;;;;;;5095109;28;20169;-49
2023/09/29 00:56:39;;;;;;;9.73;5.45;;;18.10;99.90;;;;;;5095307;28;20577;-49
2023/09/29 00:59:06;;;;;;;6.25;3.95;;;18.10;99.90;;;;;;5095246;28;20180;-49
2023/09/29 01:01:35;;;;;;;6.70;3.45;;;18.20;99.90;;;;;;5095014;28;20168;-49
2023/09/29 01:04:00;;;;;;;4.88;3.42;;;18.20;99.90;;;;;;5094867;28;20177;-49
2023/09/29 01:06:29;;;;;;;8.52;4.13;;;18.10;99.90;;;;;;5076605;28;20173;-49
2023/09/29 01:08:56;;;;;;;3.97;3.33;;;18.10;99.90;;;;;;5094960;28;20664;-49
2023/09/29 01:11:22;;;;;;;8.25;3.95;;;18.10;99.90;;;;;;5094846;28;20166;-49
2023/09/29 01:13:47;;;;;;;8.65;5.35;;;18.10;99.90;;;;;;5095008;28;20297;-49
2023/09/29 01:16:13;;;;;;;17.05;7.53;;;;;;;;;;5094947;28;20165;-49
2023/09/29 01:18:39;;;;;;;7.63;5.13;;;18.10;99.90;;;;;;5095321;28;20246;-49
2023/09/29 01:21:06;;;;;;;6.35;4.35;;;18.10;99.90;;;;;;5094640;28;20193;-49
2023/09/29 01:23:33;;;;;;;7.47;4.78;;;18.10;99.90;;;;;;5094660;28;20170;-49
2023/09/29 01:25:59;;;;;;;6.22;4.07;;;18.00;99.90;;;;;;5094504;28;20640;-49
2023/09/29 01:28:25;;;;;;;6.38;3.65;;;18.10;99.90;;;;;;5094316;28;20711;-49
2023/09/29 01:30:53;;;;;;;3.83;3.13;;;18.00;99.90;;;;;;5094701;28;20264;-49
2023/09/29 01:33:21;;;;;;;5.70;4.45;;;18.10;99.90;;;;;;5094598;28;20169;-49
2023/09/29 01:35:48;;;;;;;7.20;4.18;;;18.10;99.90;;;;;;5076266;28;20173;-49
2023/09/29 01:38:14;;;;;;;5.80;3.88;;;18.10;99.90;;;;;;5094572;28;20260;-49
2023/09/29 01:40:40;;;;;;;7.40;4.68;;;18.00;99.90;;;;;;5094756;28;20204;-49
2023/09/29 01:43:06;;;;;;;6.28;4.28;;;18.00;99.90;;;;;;5094035;28;20193;-49
2023/09/29 01:45:32;;;;;;;10.45;6.10;;;18.00;99.90;;;;;;5093369;28;20747;-49
2023/09/29 01:47:58;;;;;;;9.15;4.43;;;18.10;99.90;;;;;;5094222;28;20197;-49
2023/09/29 01:50:24;;;;;;;7.43;3.47;;;18.00;99.90;;;;;;5094107;28;20173;-49
2023/09/29 01:52:50;;;;;;;11.25;5.20;;;18.00;99.90;;;;;;5093921;28;20169;-49
2023/09/29 01:55:21;;;;;;;6.28;4.07;;;18.00;99.90;;;;;;5094037;28;20161;-49
2023/09/29 01:57:47;;;;;;;7.97;4.97;;;18.00;99.90;;;;;;5094129;28;20186;-49
2023/09/29 02:00:23;;;;;;;5.65;3.35;;;18.00;99.90;;;;;;5093931;28;20648;-49
2023/09/29 02:02:51;;;;;;;7.88;4.55;;;18.10;99.90;;;;;;5093768;28;20612;-49
2023/09/29 02:05:17;;;;;;;14.32;6.47;;;18.00;99.90;;;;;;5093817;28;20176;-49
2023/09/29 02:07:43;;;;;;;9.00;4.93;;;18.10;99.90;;;;;;5093667;28;20165;-49
2023/09/29 02:10:09;;;;;;;6.63;4.07;;;18.00;99.90;;;;;;5094105;28;20248;-49
2023/09/29 02:12:42;;;;;;;9.43;5.13;;;18.00;99.90;;;;;;5093618;28;20664;-49
2023/09/29 02:15:08;;;;;;;7.07;5.03;;;18.00;99.90;;;;;;5094010;28;20264;-49
2023/09/29 02:17:36;;;;;;;11.00;5.78;;;18.00;99.90;;;;;;5093764;28;20590;-49
2023/09/29 02:20:11;;;;;;;7.90;5.25;;;18.00;99.90;;;;;;5093432;28;20671;-49
2023/09/29 02:22:37;;;;;;;9.18;5.38;;;18.00;99.90;;;;;;5094073;28;20172;-49
2023/09/29 02:25:03;;;;;;;10.05;4.78;;;18.00;99.90;;;;;;5093415;28;20522;-50
2023/09/29 02:27:29;;;;;;;9.85;5.93;;;18.00;99.90;;;;;;5093292;28;20195;-49
2023/09/29 02:29:55;;;;;;;6.47;5.00;;;;;;;;;;5093180;28;20226;-49
2023/09/29 02:32:21;;;;;;;11.73;6.72;;;18.00;99.90;;;;;;5093249;28;20169;-49
2023/09/29 02:34:47;;;;;;;12.48;6.60;;;18.00;99.90;;;;;;5093354;28;20508;-50
2023/09/29 02:37:14;;;;;;;9.20;5.57;;;18.00;99.90;;;;;;5093369;28;20173;-50
2023/09/29 02:39:39;;;;;;;7.13;5.90;;;18.00;99.90;;;;;;5075504;28;20632;-49
2023/09/29 02:42:05;;;;;;;5.78;4.65;;;17.90;99.90;;;;;;5093235;28;20173;-49
2023/09/29 02:44:33;;;;;;;9.05;5.20;;;18.00;99.90;;;;;;5092968;28;20170;-49
2023/09/29 02:46:59;;;;;;;11.15;7.13;;;18.00;99.90;;;;;;5092718;28;20228;-50
2023/09/29 02:49:27;;;;;;;7.70;5.05;;;17.90;99.90;;;;;;5093084;28;20204;-49
2023/09/29 02:51:53;;;;;;;10.68;6.30;;;17.90;99.90;;;;;;5093100;28;20169;-49
2023/09/29 02:54:19;;;;;;;8.00;4.65;;;18.00;99.90;;;;;;5092864;28;20165;-49
2023/09/29 02:56:45;;;;;;;8.85;5.82;;;17.90;99.90;;;;;;5092731;28;20232;-49
2023/09/29 02:59:12;;;;;;;5.95;3.80;;;17.90;99.90;;;;;;5093196;28;20629;-49
2023/09/29 03:01:37;;;;;;;4.95;3.55;;;17.90;99.90;;;;;;5093369;28;20189;-51
2023/09/29 03:04:07;;;;;;;6.55;3.35;;;18.00;99.90;;;;;;5092384;28;20605;-50
2023/09/29 03:06:32;;;;;;;7.05;3.53;;;18.10;99.90;;;;;;5092524;28;20218;-50
2023/09/29 03:08:59;;;;;;;8.70;4.15;;;18.00;99.90;;;;;;5092558;28;20201;-49
2023/09/29 03:11:25;;;;;;;4.53;3.28;;;18.10;99.90;;;;;;5074438;28;20195;-50
2023/09/29 03:13:54;;;;;;;7.32;3.63;;;18.00;99.90;;;;;;5092573;28;20633;-49
2023/09/29 03:16:25;;;;;;;6.25;4.57;;;18.00;99.90;;;;;;5092632;28;20533;-49
2023/09/29 03:18:51;;;;;;;8.27;5.38;;;18.00;99.90;;;;;;5092632;28;20208;-49
2023/09/29 03:21:17;;;;;;;7.45;4.93;;;18.00;99.90;;;;;;5092291;28;20197;-50
2023/09/29 03:23:43;;;;;;;7.18;5.13;;;18.00;99.90;;;;;;5092534;28;20201;-49
2023/09/29 03:26:09;;;;;;;8.65;4.82;;;18.10;99.90;;;;;;5092872;28;20667;-49
2023/09/29 03:28:35;;;;;;;7.85;4.95;;;18.00;99.90;;;;;;5092127;28;20222;-50
2023/09/29 03:31:07;;;;;;;7.60;4.90;;;18.10;99.90;;;;;;5092149;28;20675;-49
2023/09/29 03:33:33;;;;;;;7.05;4.40;;;18.00;99.90;;;;;;5092089;28;20162;-50
2023/09/29 03:35:59;;;;;;;6.13;4.25;;;18.00;99.90;;;;;;5092018;28;20261;-49
2023/09/29 03:38:25;;;;;;;5.10;4.38;;;18.00;99.90;;;;;;5092016;28;20252;-49
2023/09/29 03:40:52;;;;;;;16.23;6.65;;;18.10;99.90;;;;;;5092213;28;20169;-49
2023/09/29 03:43:18;;;;;;;9.52;6.47;;;18.10;99.90;;;;;;5091956;28;20527;-49
2023/09/29 03:45:46;;;;;;;8.18;5.70;;;18.00;99.90;;;;;;5091898;28;20585;-49
2023/09/29 03:48:12;;;;;;;8.32;5.13;;;18.00;99.90;;;;;;5092001;28;20224;-49
2023/09/29 03:50:39;;;;;;;9.00;5.35;;;18.10;99.90;;;;;;5074159;28;20238;-49
2023/09/29 03:53:05;;;;;;;11.90;6.13;;;18.00;99.90;;;;;;5091990;28;20174;-50
2023/09/29 03:55:31;;;;;;;14.43;6.38;;;18.00;99.90;;;;;;5091720;28;20177;-49
2023/09/29 03:57:57;;;;;;;7.55;6.72;;;18.00;99.90;;;;;;5091952;28;20226;-49
2023/09/29 04:00:22;;;;;;;12.32;7.65;;;17.90;99.90;;;;;;5091703;28;20643;-50
2023/09/29 04:02:50;;;;;;;13.98;7.78;;;18.00;99.90;;;;;;5091688;28;20214;-49
2023/09/29 04:05:17;;;;;;;11.02;8.75;;;18.00;99.90;;;;;;5091615;28;20200;-50
2023/09/29 04:07:43;;;;;;;14.70;9.95;;;17.90;99.90;;;;;;5090928;28;20165;-49
2023/09/29 04:10:10;;;;;;;11.27;8.57;;;17.90;99.90;;;;;;5092008;28;20193;-49
2023/09/29 04:12:37;;;;;;;14.30;9.50;;;17.90;99.90;;;;;;5092175;28;20249;-50
2023/09/29 04:15:03;;;;;;;15.15;10.23;;;18.00;99.90;;;;;;5091570;28;20168;-49
2023/09/29 04:17:29;;;;;;;12.95;9.98;;;17.90;99.90;;;;;;5091540;28;20158;-50
2023/09/29 04:19:55;;;;;;;16.33;10.82;;;18.00;99.90;;;;;;5091833;28;20169;-49
2023/09/29 04:22:24;;;;;;;13.23;9.23;;;18.00;99.90;;;;;;5091435;28;20168;-49
2023/09/29 04:24:50;;;;;;;16.40;9.25;;;;;;;;;;5091464;28;20164;-50
2023/09/29 04:27:15;;;;;;;21.58;13.23;;;18.00;99.90;;;;;;5091675;28;20196;-49
2023/09/29 04:29:41;;;;;;;15.20;9.30;;;;;;;;;;5091294;28;20548;-50
2023/09/29 04:32:07;;;;;;;11.82;7.85;;;17.90;99.90;;;;;;5091663;28;20226;-49
2023/09/29 04:34:33;;;;;;;12.93;9.35;;;17.80;99.90;;;;;;5091597;28;20172;-49
2023/09/29 04:36:59;;;;;;;12.32;7.93;;;17.80;99.90;;;;;;5091273;28;20166;-49
2023/09/29 04:39:24;;;;;;;7.95;7.07;;;18.00;99.90;;;;;;5091361;28;20184;-49
2023/09/29 04:41:50;;;;;;;10.32;7.78;;;17.80;99.90;;;;;;5090888;28;20169;-49
2023/09/29 04:44:16;;;;;;;16.85;9.50;;;17.80;99.90;;;;;;5091199;28;20176;-49
2023/09/29 04:46:42;;;;;;;35.58;16.17;;;17.90;99.90;;;;;;5090808;28;20235;-50
2023/09/29 04:49:07;;;;;;;16.80;9.13;;;17.80;99.90;;;;;;5091735;28;20215;-50
2023/09/29 04:51:33;;;;;;;18.45;10.30;;;17.80;99.90;;;;;;5073073;28;20245;-50
2023/09/29 04:53:59;;;;;;;10.63;6.70;;;17.80;99.90;;;;;;5091197;28;20252;-50
2023/09/29 04:56:25;;;;;;;14.30;8.82;;;17.80;99.90;;;;;;5073136;28;20174;-50
2023/09/29 04:58:51;;;;;;;14.75;9.35;;;17.90;99.90;;;;;;5091062;28;20219;-49
2023/09/29 05:01:18;;;;;;;9.02;6.55;;;17.80;99.90;;;;;;5091184;28;20208;-51
2023/09/29 05:03:44;;;;;;;9.40;6.10;;;17.80;99.90;;;;;;5091056;28;20629;-51
2023/09/29 05:06:09;;;;;;;6.28;5.07;;;18.00;99.90;;;;;;5091599;28;20180;-50
2023/09/29 05:08:36;;;;;;;8.88;5.75;;;17.80;99.90;;;;;;5090959;28;20215;-50
2023/09/29 05:11:02;;;;;;;10.05;5.40;;;18.00;99.90;;;;;;5072879;28;20547;-51
2023/09/29 05:13:32;;;;;;;8.90;6.32;;;17.80;99.90;;;;;;5090920;28;20226;-50
2023/09/29 05:15:58;;;;;;;12.73;8.38;;;17.90;99.90;;;;;;5091163;28;20180;-51
2023/09/29 05:18:24;;;;;;;15.02;8.48;;;17.90;99.90;;;;;;5092368;28;20188;-51
2023/09/29 05:20:50;;;;;;;9.57;7.00;;;17.80;99.90;;;;;;5076546;28;20621;-50
2023/09/29 05:23:15;;;;;;;9.68;5.85;;;17.80;99.90;;;;;;5082462;28;20194;-50
2023/09/29 05:25:47;;;;;;;14.80;8.02;;;17.90;99.90;;;;;;5074355;28;20625;-51
2023/09/29 05:28:14;;;;;;;12.30;7.50;;;17.80;99.90;;;;;;5074032;28;20248;-51
2023/09/29 05:30:42;;;;;;;10.32;7.20;;;17.80;99.90;;;;;;5074616;28;20169;-51
2023/09/29 05:33:08;;;;;;;10.68;7.43;;;17.90;99.90;;;;;;5074636;28;20180;-51
2023/09/29 05:35:34;;;;;;;16.10;9.13;;;17.90;99.90;;;;;;5074294;28;20264;-51
2023/09/29 05:38:00;;;;;;;11.82;6.00;;;17.80;99.90;;;;;;5074151;28;20169;-51
2023/09/29 05:40:25;;;;;;;15.00;7.68;;;18.00;99.90;;;;;;5074100;28;20239;-51
2023/09/29 05:42:51;;;;;;;14.57;8.65;;;17.90;99.90;;;;;;5074173;28;20173;-51
2023/09/29 05:45:17;;;;;;;11.07;7.20;;;17.90;99.90;;;;;;5073689;28;20220;-51
2023/09/29 05:47:42;;;;;;;9.25;6.35;;;17.80;99.90;;;;;;5073866;28;20162;-51
2023/09/29 05:50:08;;;;;;;10.80;6.45;;;17.90;99.90;;;;;;5074243;28;20271;-51
2023/09/29 05:52:35;;;;;;;12.13;9.82;;;17.90;99.90;;;;;;5073744;28;20570;-51
2023/09/29 05:55:01;;;;;;;13.95;7.57;;;18.10;99.90;;;;;;5073800;28;20713;-51
2023/09/29 05:57:26;;;;;;;14.88;6.63;;;18.00;99.90;;;;;;5073770;28;20260;-51
2023/09/29 05:59:54;;;;;;;24.20;13.57;;;18.00;99.90;;;;;;5073649;28;20165;-51
2023/09/29 06:02:20;;;;;;;21.35;10.85;;;18.00;99.90;;;;;;5073881;28;20166;-51
2023/09/29 06:04:46;;;;;;;21.08;11.88;;;18.10;99.90;;;;;;5073750;28;20640;-51
2023/09/29 06:07:11;;;;;;;16.48;9.13;;;18.10;99.90;;;;;;5055636;28;20197;-51
2023/09/29 06:09:37;;;;;;;14.05;8.70;;;18.10;99.90;;;;;;5073822;28;20373;-51
2023/09/29 06:12:02;;;;;;;10.98;6.72;;;18.20;99.90;;;;;;5073415;28;20162;-51
2023/09/29 06:14:31;;;;;;;14.77;8.15;;;18.20;99.90;;;;;;5073377;28;20169;-51
2023/09/29 06:16:58;;;;;;;23.17;11.13;;;18.30;99.90;;;;;;5055310;28;20185;-51
2023/09/29 06:19:24;;;;;;;18.35;8.02;;;18.30;99.90;;;;;;5073338;28;20168;-51
2023/09/29 06:21:49;;;;;;;20.45;10.10;;;18.30;99.90;;;;;;5073255;28;20162;-51
2023/09/29 06:24:15;;;;;;;12.88;6.93;;;;;;;;;;5073089;28;20166;-51
2023/09/29 06:26:41;;;;;;;12.73;6.55;;;18.30;99.90;;;;;;5073252;28;20236;-51
2023/09/29 06:29:06;;;;;;;34.00;14.52;;;18.30;99.90;;;;;;5073379;28;20201;-51
2023/09/29 06:31:32;;;;;;;15.38;8.30;;;18.30;99.90;;;;;;5072614;28;20173;-51
2023/09/29 06:33:58;;;;;;;23.15;10.10;;;18.40;99.90;;;;;;5072989;28;20162;-50
2023/09/29 06:36:23;;;;;;;20.10;9.15;;;18.30;99.90;;;;;;5073166;28;20173;-51
2023/09/29 06:38:49;;;;;;;23.02;11.25;;;18.30;99.90;;;;;;5072939;28;20173;-51
2023/09/29 06:41:14;;;;;;;14.50;7.53;;;18.40;99.90;;;;;;5072753;28;20166;-51
2023/09/29 06:43:40;;;;;;;25.52;13.80;;;18.50;99.90;;;;;;5073364;28;20165;-51
2023/09/29 06:46:06;;;;;;;19.20;10.90;;;18.50;99.90;;;;;;5072896;28;20763;-51
2023/09/29 06:48:33;;;;;;;17.52;10.70;;;18.60;99.90;;;;;;5072676;28;20206;-51
2023/09/29 06:50:59;;;;;;;19.40;12.30;;;18.70;99.90;;;;;;5072696;28;20162;-51
2023/09/29 06:53:26;;;;;;;29.95;15.68;;;18.70;99.90;;;;;;5072906;28;20241;-51
2023/09/29 06:55:52;;;;;;;26.45;15.32;;;18.80;99.90;;;;;;5072846;28;20613;-51
2023/09/29 06:58:18;;;;;;;17.40;8.98;;;18.90;99.90;;;;;;5054640;28;20211;-51
2023/09/29 07:00:44;;;;;;;8.60;5.53;;;19.10;99.90;;;;;;5072570;28;20220;-51
2023/09/29 07:03:12;;;;;;;8.32;3.17;;;19.30;99.90;;;;;;5073046;28;20178;-51
2023/09/29 07:05:38;;;;;;;8.65;4.05;;;19.50;99.90;;;;;;5055084;28;20517;-51
2023/09/29 07:08:04;;;;;;;6.50;2.80;;;19.60;99.90;;;;;;5072267;28;20166;-51
2023/09/29 07:10:30;;;;;;;8.90;4.53;;;19.70;99.90;;;;;;5072330;28;20592;-51
2023/09/29 07:12:56;;;;;;;5.80;3.88;;;19.90;99.90;;;;;;5072170;28;20249;-51
2023/09/29 07:15:22;;;;;;;4.82;2.70;;;19.90;99.90;;;;;;5072117;28;20510;-51
2023/09/29 07:17:47;;;;;;;3.50;3.00;;;19.80;99.90;;;;;;5072151;28;20173;-51
2023/09/29 07:20:13;;;;;;;5.80;3.25;;;19.80;99.90;;;;;;5072306;28;20633;-51
2023/09/29 07:22:39;;;;;;;8.80;5.80;;;19.80;99.90;;;;;;5072563;28;20169;-51
2023/09/29 07:25:05;;;;;;;5.68;3.53;;;19.80;99.90;;;;;;5072069;28;20162;-51
2023/09/29 07:27:31;;;;;;;7.40;3.95;;;19.90;99.90;;;;;;5072187;28;20574;-51
2023/09/29 07:29:57;;;;;;;4.68;3.08;;;19.80;99.90;;;;;;5072098;28;20222;-51
2023/09/29 07:32:24;;;;;;;4.30;2.92;;;19.90;99.90;;;;;;5071886;28;20162;-51
2023/09/29 07:34:50;;;;;;;5.05;2.70;;;19.90;99.90;;;;;;5072091;28;20177;-51
2023/09/29 07:37:15;;;;;;;7.32;3.90;;;19.90;99.90;;;;;;5053979;28;20170;-51
2023/09/29 07:39:41;;;;;;;7.13;4.75;;;20.00;99.90;;;;;;5071684;28;20193;-51
2023/09/29 07:42:07;;;;;;;8.77;4.63;;;20.10;99.90;;;;;;5071247;28;20555;-51
2023/09/29 07:44:32;;;;;;;7.25;3.30;;;20.20;99.90;;;;;;5071727;28;20166;-51
2023/09/29 07:46:58;;;;;;;6.25;4.57;;;20.30;99.90;;;;;;5071581;28;20237;-51
2023/09/29 07:49:24;;;;;;;4.85;3.00;;;20.40;99.90;;;;;;5071571;28;20201;-51
2023/09/29 07:51:50;;;;;;;5.35;3.17;;;20.60;99.90;;;;;;5071828;28;20177;-51
2023/09/29 07:54:16;;;;;;;4.75;2.53;;;20.70;99.90;;;;;;5071814;28;20172;-51
2023/09/29 07:56:47;;;;;;;3.17;2.38;;;20.80;99.90;;;;;;5071818;28;20170;-51
2023/09/29 07:59:13;;;;;;;4.78;3.00;;;20.90;99.90;;;;;;5071427;28;20176;-51
2023/09/29 08:01:42;;;;;;;4.38;2.60;;;21.00;99.90;;;;;;5072076;28;20264;-51
2023/09/29 08:04:08;;;;;;;3.75;2.70;;;20.90;99.90;;;;;;5072148;28;20246;-51
2023/09/29 08:06:33;;;;;;;5.68;2.70;;;20.90;99.90;;;;;;5071436;28;20629;-51
2023/09/29 08:09:00;;;;;;;3.42;2.67;;;20.90;99.90;;;;;;5068839;28;20593;-52
2023/09/29 08:11:26;;;;;;;6.55;2.95;;;;;;;;;;5070013;28;20174;-47
2023/09/29 08:13:53;;;;;;;4.50;2.72;;;;;;;;;;5069557;28;20166;-52
2023/09/29 08:16:20;;;;;;;5.85;3.05;;;;;;;;;;5069800;28;20181;-51
2023/09/29 08:18:45;;;;;;;4.07;2.72;;;21.20;99.90;;;;;;5069866;28;20169;-52
2023/09/29 08:21:11;;;;;;;6.10;3.28;;;;;;;;;;5069453;28;20252;-48
2023/09/29 08:23:39;;;;;;;3.65;2.70;;;;;;;;;;5070075;28;20170;-49
2023/09/29 08:26:05;;;;;;;6.45;3.55;;;21.30;99.90;;;;;;5070270;28;20189;-53
2023/09/29 08:28:30;;;;;;;3.50;2.40;;;21.40;99.90;;;;;;5069396;28;20679;-51
2023/09/29 08:30:56;;;;;;;3.72;2.63;;;21.50;99.90;;;;;;5069549;28;20223;-51
2023/09/29 08:33:23;;;;;;;3.85;2.50;;;21.80;99.90;;;;;;5069721;28;20158;-50
2023/09/29 08:35:49;;;;;;;7.78;3.08;;;22.00;99.90;;;;;;5069499;28;20174;-51
2023/09/29 08:38:14;;;;;;;5.40;2.55;;;22.10;99.90;;;;;;5069476;28;20170;-51
2023/09/29 08:40:42;;;;;;;4.82;2.50;;;22.20;99.90;;;;;;5069416;28;20163;-51
2023/09/29 08:43:12;;;;;;;10.95;3.08;;;22.50;99.90;;;;;;5069933;28;20640;-51
2023/09/29 08:45:42;;;;;;;6.20;2.83;;;22.70;99.90;;;;;;5069428;28;20673;-52
2023/09/29 08:48:11;;;;;;;7.32;2.63;;;22.80;99.90;;;;;;5069566;28;20219;-50
2023/09/29 08:50:41;;;;;;;6.97;3.30;;;22.90;99.90;;;;;;5069561;28;20166;-52
2023/09/29 08:53:10;;;;;;;3.92;3.15;;;22.90;99.90;;;;;;5069939;28;20166;-52
2023/09/29 08:55:37;;;;;;;4.72;2.70;;;23.00;99.90;;;;;;5073678;28;20185;-52
2023/09/29 08:58:03;;;;;;;7.10;3.30;;;23.10;99.90;;;;;;5071587;28;20185;-52
2023/09/29 09:00:30;;;;;;;6.30;3.13;;;23.20;99.90;;;;;;5072215;28;20169;-52
2023/09/29 09:02:58;;;;;;;6.30;3.67;;;23.30;99.90;;;;;;5072531;28;20592;-51
2023/09/29 09:05:24;;;;;;;6.28;3.10;;;;;;;;;;5072535;28;20203;-52
2023/09/29 09:07:50;;;;;;;5.95;3.35;;;23.50;99.90;;;;;;5072465;28;20525;-52
2023/09/29 09:10:16;;;;;;;5.72;3.17;;;;;;;;;;5072470;28;20202;-53
2023/09/29 09:12:43;;;;;;;5.03;3.40;;;;;;;;;;5072572;28;20650;-49
2023/09/29 09:15:09;;;;;;;7.80;2.83;;;23.40;99.90;;;;;;5073082;28;20161;-48
2023/09/29 09:17:35;;;;;;;7.78;2.88;;;23.30;99.90;;;;;;5073138;28;20184;-49
2023/09/29 09:20:02;;;;;;;7.35;3.25;;;23.30;99.90;;;;;;5072631;28;20170;-51
2023/09/29 09:22:32;;;;;;;4.97;2.90;;;23.30;99.90;;;;;;5072997;28;20868;-49
2023/09/29 09:24:59;;;;;;;6.68;3.47;;;23.30;99.90;;;;;;5072867;28;20586;-50
2023/09/29 09:27:25;;;;;;;6.75;3.30;;;23.30;99.90;;;;;;5072762;28;20582;-50
2023/09/29 09:29:51;;;;;;;5.93;3.35;;;;;;;;;;5072592;28;20239;-51
2023/09/29 09:32:27;;;;;;;6.07;2.50;;;22.90;99.90;;;;;;5072556;28;20633;-52
2023/09/29 09:34:52;;;;;;;3.53;2.97;;;22.70;99.90;;;;;;5072795;28;20212;-52
2023/09/29 09:37:25;;;;;;;2.50;2.30;;;22.50;99.90;;;;;;5072295;28;20189;-52
2023/09/29 09:39:55;;;;;;;3.95;2.30;;;22.30;99.90;;;;;;5072572;28;20248;-51
2023/09/29 09:42:25;;;;;;;3.17;2.45;;;22.30;99.90;;;;;;5072458;28;20162;-51
2023/09/29 09:44:53;;;;;;;2.97;2.55;;;;;;;;;;5072260;28;20178;-50
2023/09/29 09:47:20;;;;;;;4.35;2.60;;;22.20;99.90;;;;;;5072401;28;20535;-50
2023/09/29 09:49:48;;;;;;;3.80;2.00;;;22.10;99.90;;;;;;5072501;28;20214;-50
2023/09/29 09:52:23;;;;;;;5.35;2.70;;;22.00;99.90;;;;;;5073475;28;20652;-50
2023/09/29 09:54:52;;;;;;;4.30;2.83;;;21.90;99.90;;;;;;5073792;28;20640;-50
2023/09/29 09:57:41;;;;;;;7.82;2.97;;;21.90;99.90;;;;;;5073582;28;20174;-50
2023/09/29 10:00:10;;;;;;;5.72;3.25;;;21.90;99.90;;;;;;5073819;28;20656;-50
2023/09/29 10:02:48;;;;;;;4.35;3.30;;;21.90;99.90;;;;;;5074466;28;20197;-50
2023/09/29 10:05:24;;;;;;;10.57;3.55;;;22.00;99.90;;;;;;5071933;28;20274;-50
2023/09/29 10:07:52;;;;;;;6.93;3.42;;;21.80;99.90;;;;;;5073100;28;20157;-50
2023/09/29 10:10:26;;;;;;;8.20;3.15;;;22.00;99.90;;;;;;5073446;28;20212;-50
2023/09/29 10:12:55;;;;;;;13.80;3.83;;;22.40;99.90;;;;;;5073169;28;20165;-50
2023/09/29 10:15:21;;;;;;;9.13;3.92;;;22.60;99.90;;;;;;5072954;28;20176;-50
2023/09/29 10:17:47;;;;;;;8.30;3.90;;;22.70;99.90;;;;;;5073345;28;20171;-50
2023/09/29 10:20:26;;;;;;;8.38;4.70;;;23.00;99.90;;;;;;5072849;28;20224;-48
2023/09/29 10:23:08;;;;;;;16.63;5.18;;;23.30;99.90;;;;;;5073285;28;20218;-52
2023/09/29 10:25:38;;;;;;;10.80;4.63;;;23.30;99.90;;;;;;5073292;28;20215;-51
2023/09/29 10:28:06;;;;;;;7.50;4.60;;;23.20;99.90;;;;;;5073072;28;20264;-51
2023/09/29 10:30:33;;;;;;;10.10;4.75;;;22.90;99.90;;;;;;5072979;28;20176;-52
2023/09/29 10:33:11;;;;;;;11.15;4.97;;;22.80;99.90;;;;;;5073182;28;20241;-50
2023/09/29 10:35:44;;;;;;;10.63;5.05;;;22.80;99.90;;;;;;5073193;28;20193;-49
2023/09/29 10:38:21;;;;;;;10.48;4.80;;;22.80;99.90;;;;;;5073153;28;20211;-50
2023/09/29 10:40:48;;;;;;;13.45;5.90;;;22.70;99.90;;;;;;5073080;28;20181;-51
2023/09/29 10:43:17;;;;;;;10.18;4.82;;;22.60;99.90;;;;;;5073111;28;20165;-50
2023/09/29 10:45:43;;;;;;;9.00;5.20;;;22.70;99.90;;;;;;5072940;28;20214;-49
2023/09/29 10:48:09;;;;;;;10.68;5.25;;;22.70;99.90;;;;;;5073283;28;20618;-49
2023/09/29 10:50:43;;;;;;;11.27;5.88;;;22.70;99.90;;;;;;5073266;28;20196;-49
2023/09/29 10:53:09;;;;;;;11.57;5.55;;;22.90;99.90;;;;;;5073315;28;20268;-48
2023/09/29 10:55:49;;;;;;;16.23;5.60;;;23.00;99.90;;;;;;5072246;28;20260;-48
2023/09/29 10:58:16;;;;;;;11.57;6.35;;;23.10;99.90;;;;;;5072376;28;20682;-48
2023/09/29 11:00:46;;;;;;;10.35;5.53;;;23.10;99.90;;;;;;5072097;28;20632;-49
2023/09/29 11:03:17;;;;;;;10.95;5.60;;;23.10;99.90;;;;;;5071997;28;20260;-49
2023/09/29 11:05:58;;;;;;;9.40;6.10;;;23.10;99.90;;;;;;5072260;28;20249;-49
2023/09/29 11:08:34;;;;;;;11.25;5.63;;;23.20;99.90;;;;;;5072039;28;20209;-50
2023/09/29 11:11:02;;;;;;;11.02;5.88;;;23.10;99.90;;;;;;5071906;28;20173;-50
2023/09/29 11:13:38;;;;;;;12.23;5.57;;;23.20;99.90;;;;;;5072019;28;20605;-50
2023/09/29 11:16:17;;;;;;;10.60;5.82;;;23.20;99.90;;;;;;5053599;28;20644;-49
2023/09/29 11:18:46;;;;;;;15.40;6.35;;;23.10;99.90;;;;;;5070785;28;20173;-51
2023/09/29 11:21:12;;;;;;;12.18;6.45;;;23.20;99.90;;;;;;5071916;28;20161;-50
2023/09/29 11:23:48;;;;;;;13.40;6.40;;;23.10;99.90;;;;;;5072318;28;20178;-51
2023/09/29 11:26:15;;;;;;;13.40;6.25;;;22.90;99.90;;;;;;5071820;28;20291;-50
2023/09/29 11:28:44;;;;;;;11.85;5.85;;;22.80;99.90;;;;;;5053748;28;20766;-51
2023/09/29 11:31:16;;;;;;;13.10;5.80;;;22.70;99.90;;;;;;5071941;28;20208;-50
2023/09/29 11:33:44;;;;;;;9.95;5.60;;;22.90;99.90;;;;;;5071672;28;20174;-51
2023/09/29 11:36:27;;;;;;;11.93;5.75;;;23.10;99.90;;;;;;5054211;28;20158;-51
2023/09/29 11:38:52;;;;;;;13.52;6.15;;;23.20;99.90;;;;;;5071408;28;20645;-51
2023/09/29 11:41:22;;;;;;;9.82;5.43;;;23.10;99.90;;;;;;5071459;28;20201;-51
2023/09/29 11:43:48;;;;;;;9.30;4.90;;;23.20;99.90;;;;;;5071512;28;20170;-51
2023/09/29 11:46:14;;;;;;;10.98;5.05;;;23.20;99.90;;;;;;5071180;28;20558;-51
2023/09/29 11:48:44;;;;;;;11.65;4.75;;;23.30;99.90;;;;;;5071081;28;20197;-50
2023/09/29 11:51:13;;;;;;;10.80;5.18;;;23.30;99.90;;;;;;5071223;28;20192;-49
2023/09/29 11:53:38;;;;;;;12.90;5.07;;;23.30;99.90;;;;;;5071605;28;20161;-51
2023/09/29 11:56:05;;;;;;;10.63;5.10;;;23.20;99.90;;;;;;5071721;28;20550;-51
2023/09/29 11:58:31;;;;;;;14.20;5.45;;;23.10;99.90;;;;;;5070895;28;20167;-51
2023/09/29 12:00:58;;;;;;;16.35;5.20;;;23.20;99.90;;;;;;5071193;28;20173;-51
2023/09/29 12:03:24;;;;;;;11.35;4.72;;;23.10;99.90;;;;;;5071460;28;20180;-50
2023/09/29 12:05:53;;;;;;;13.23;5.20;;;23.00;99.90;;;;;;5071383;28;20240;-51
2023/09/29 12:08:19;;;;;;;15.35;4.60;;;23.10;99.90;;;;;;5070691;28;20177;-51
2023/09/29 12:10:46;;;;;;;10.95;4.88;;;23.20;99.90;;;;;;5071092;28;20166;-49
2023/09/29 12:13:15;;;;;;;8.95;4.68;;;23.20;99.90;;;;;;5071078;28;20164;-51
2023/09/29 12:15:43;;;;;;;8.70;4.68;;;23.20;99.90;;;;;;5071102;28;20162;-51
2023/09/29 12:18:10;;;;;;;9.85;4.90;;;23.20;99.90;;;;;;5071330;28;20219;-49
2023/09/29 12:20:38;;;;;;;8.13;4.13;;;23.00;99.90;;;;;;5071366;28;20165;-51
2023/09/29 12:23:08;;;;;;;10.82;5.18;;;22.80;99.90;;;;;;5071530;28;20183;-50
2023/09/29 12:25:35;;;;;;;13.00;4.88;;;22.70;99.90;;;;;;5071104;28;20624;-50
2023/09/29 12:28:03;;;;;;;14.95;4.78;;;22.60;99.90;;;;;;5071603;28;20162;-51
2023/09/29 12:30:29;;;;;;;10.18;4.53;;;22.60;99.90;;;;;;5075040;28;20329;-51
2023/09/29 12:33:05;;;;;;;12.30;4.75;;;22.60;99.90;;;;;;5075184;28;20176;-51
2023/09/29 12:35:32;;;;;;;10.88;4.63;;;22.50;99.90;;;;;;5074859;28;20211;-49
2023/09/29 12:37:57;;;;;;;10.05;4.38;;;22.50;99.90;;;;;;5074753;28;20200;-48
2023/09/29 12:40:23;;;;;;;9.57;4.80;;;22.70;99.90;;;;;;5074497;28;20169;-48
2023/09/29 12:42:51;;;;;;;9.40;3.95;;;22.60;99.90;;;;;;5074485;28;20522;-49
2023/09/29 12:45:20;;;;;;;10.23;3.80;;;22.60;99.90;;;;;;5074909;28;20613;-49
2023/09/29 12:47:48;;;;;;;7.72;3.58;;;22.60;99.90;;;;;;5075008;28;20257;-49